createdAt,value
2023-06-11T00:01:15.453Z,101306.81
2023-06-11T00:06:18.905Z,101298.31
2023-06-11T00:11:21.978Z,101300.19
2023-06-11T00:16:23.575Z,101295.75
2023-06-11T00:21:25.987Z,101294.19
2023-06-11T00:26:29.078Z,101296.81
2023-06-11T00:31:30.801Z,101289.88
2023-06-11T00:36:34.468Z,101294.28
2023-06-11T00:41:37.254Z,101290.06
2023-06-11T00:46:39.208Z,101281.41
2023-06-11T00:51:43.102Z,101283.38
2023-06-11T00:56:45.057Z,101275.63
2023-06-11T01:01:52.991Z,101270.47
2023-06-11T01:06:58.301Z,101265.28
2023-06-11T01:12:00.261Z,101267.06
2023-06-11T01:17:08.104Z,101269.72
2023-06-11T01:23:12.682Z,101267.19
2023-06-11T01:28:18.627Z,101268.97
2023-06-11T01:33:25.929Z,101263.75
2023-06-11T01:38:31.923Z,101261.97
2023-06-11T01:43:34.112Z,101260.31
2023-06-11T01:48:37.654Z,101262.97
2023-06-11T01:53:39.393Z,101252.59
2023-06-11T01:58:43.599Z,101236.94
2023-06-11T02:03:45.345Z,101232.59
2023-06-11T02:08:47.092Z,101231.72
2023-06-11T02:13:48.774Z,101221.28
2023-06-11T02:18:50.335Z,101216.06
2023-06-11T02:23:53.174Z,101212.63
2023-06-11T02:28:54.747Z,101204.84
2023-06-11T02:33:56.370Z,101198.75
2023-06-11T02:38:57.968Z,101197.06
2023-06-11T02:43:59.695Z,101206.59
2023-06-11T02:49:01.775Z,101195.28
2023-06-11T02:54:04.027Z,101196.16
2023-06-11T02:59:06.587Z,101197.03
2023-06-11T03:04:08.485Z,101191.81
2023-06-11T03:09:10.061Z,101182.25
2023-06-11T03:14:11.574Z,101179.66
2023-06-11T03:19:13.239Z,101181.41
2023-06-11T03:24:14.820Z,101173.59
2023-06-11T03:29:16.533Z,101182.28
2023-06-11T03:34:18.129Z,101188.41
2023-06-11T03:39:19.718Z,101174.47
2023-06-11T03:44:21.350Z,101174.53
2023-06-11T03:49:22.923Z,101161.44
2023-06-11T03:54:25.035Z,101167.50
2023-06-11T03:59:26.558Z,101150.16
2023-06-11T04:04:28.180Z,101155.34
2023-06-11T04:09:29.900Z,101158.84
2023-06-11T04:14:31.469Z,101150.97
2023-06-11T04:19:33.009Z,101142.25
2023-06-11T04:24:34.652Z,101142.28
2023-06-11T04:29:36.265Z,101150.81
2023-06-11T04:34:38.904Z,101165.53
2023-06-11T04:39:40.473Z,101168.09
2023-06-11T04:44:42.082Z,101169.53
2023-06-11T04:49:44.911Z,101192.75
2023-06-11T04:54:46.557Z,101242.56
2023-06-11T04:59:50.686Z,101270.91
2023-06-11T05:04:54.769Z,101275.09
2023-06-11T05:10:00.152Z,101282.66
2023-06-11T05:15:01.802Z,101286.66
2023-06-11T05:20:04.240Z,101295.78
2023-06-11T05:25:06.048Z,101305.88
2023-06-11T05:30:09.052Z,101307.41
2023-06-11T05:35:10.901Z,101321.00
2023-06-11T05:40:12.913Z,101320.63
2023-06-11T05:45:14.660Z,101325.84
2023-06-11T05:50:16.353Z,101330.66
2023-06-11T05:55:18.198Z,101329.78
2023-06-11T06:00:19.840Z,101334.03
2023-06-11T06:05:21.643Z,101338.13
2023-06-11T06:10:23.538Z,101349.44
2023-06-11T06:15:25.128Z,101352.41
2023-06-11T06:20:26.783Z,101354.44
2023-06-11T06:25:28.651Z,101355.59
2023-06-11T06:30:30.270Z,101356.03
2023-06-11T06:35:34.805Z,101363.97
2023-06-11T06:40:36.390Z,101363.59
2023-06-11T06:45:39.503Z,101366.28
2023-06-11T06:50:41.074Z,101373.13
2023-06-11T06:55:42.682Z,101375.44
2023-06-11T07:00:47.741Z,101376.28
2023-06-11T07:05:51.602Z,101372.06
2023-06-11T07:10:55.459Z,101373.56
2023-06-11T07:15:57.074Z,101377.69
2023-06-11T07:20:58.875Z,101376.47
2023-06-11T07:26:01.529Z,101387.06
2023-06-11T07:31:03.303Z,101384.22
2023-06-11T07:36:05.129Z,101387.25
2023-06-11T07:41:06.983Z,101393.50
2023-06-11T07:46:08.684Z,101386.81
2023-06-11T07:51:10.429Z,101391.25
2023-06-11T07:56:12.267Z,101385.53
2023-06-11T08:01:14.032Z,101387.50
2023-06-11T08:06:15.567Z,101384.59
2023-06-11T08:11:17.323Z,101378.75
2023-06-11T08:16:19.468Z,101379.22
2023-06-11T08:21:21.518Z,101386.50
2023-06-11T08:26:23.246Z,101375.22
2023-06-11T08:31:26.368Z,101375.06
2023-06-11T08:36:28.256Z,101362.38
2023-06-11T08:41:32.917Z,101366.53
2023-06-11T08:46:40.200Z,101366.44
2023-06-11T08:51:42.399Z,101359.91
2023-06-11T08:56:44.697Z,101364.88
2023-06-11T09:01:52.079Z,101366.31
2023-06-11T09:07:02.070Z,101365.72
2023-06-11T09:12:10.123Z,101358.09
2023-06-11T09:17:17.098Z,101356.34
2023-06-11T09:22:27.176Z,101352.78
2023-06-11T09:27:28.874Z,101348.44
2023-06-11T09:32:34.487Z,101358.66
2023-06-11T09:37:51.588Z,101352.81
2023-06-11T09:42:53.199Z,101354.63
2023-06-11T09:47:54.809Z,101346.22
2023-06-11T09:52:58.330Z,101343.63
2023-06-11T09:58:00.278Z,101345.81
2023-06-11T10:03:02.299Z,101336.72
2023-06-11T10:08:17.275Z,101349.44
2023-06-11T10:13:29.449Z,101342.25
2023-06-11T10:18:31.832Z,101345.03
2023-06-11T10:23:37.845Z,101347.28
2023-06-11T10:28:52.452Z,101345.78
2023-06-11T10:34:01.871Z,101343.91
2023-06-11T10:39:27.878Z,101347.03
2023-06-11T10:44:33.414Z,101343.19
2023-06-11T10:49:36.081Z,101331.84
2023-06-11T10:54:38.472Z,101333.16
2023-06-11T10:59:40.168Z,101325.13
2023-06-11T11:04:52.828Z,101334.72
2023-06-11T11:09:57.230Z,101329.50
2023-06-11T11:15:06.406Z,101325.91
2023-06-11T11:20:09.642Z,101310.66
2023-06-11T11:25:12.164Z,101300.81
2023-06-11T11:30:14.962Z,101309.81
2023-06-11T11:35:16.917Z,101297.09
2023-06-11T11:40:20.691Z,101300.72
2023-06-11T11:45:31.332Z,101297.47
2023-06-11T11:50:34.801Z,101284.97
2023-06-11T11:55:51.719Z,101289.28
2023-06-11T12:01:00.719Z,101290.28
2023-06-11T12:06:05.713Z,101286.16
2023-06-11T12:11:08.461Z,101288.84
2023-06-11T12:16:10.113Z,101282.56
2023-06-11T12:21:12.777Z,101280.88
2023-06-11T12:26:14.545Z,101282.25
2023-06-11T12:31:17.582Z,101288.16
2023-06-11T12:36:19.168Z,101278.72
2023-06-11T12:41:21.469Z,101273.91
2023-06-11T12:46:23.598Z,101271.53
2023-06-11T12:51:25.318Z,101271.97
2023-06-11T12:56:27.212Z,101257.41
2023-06-11T13:01:29.939Z,101270.50
2023-06-11T13:06:31.521Z,101278.88
2023-06-11T13:11:33.290Z,101264.06
2023-06-11T13:16:34.924Z,101276.66
2023-06-11T13:21:37.248Z,101260.59
2023-06-11T13:26:39.097Z,101258.06
2023-06-11T13:31:40.766Z,101261.81
2023-06-11T13:36:43.614Z,101262.94
2023-06-11T13:41:46.562Z,101256.16
2023-06-11T13:46:48.510Z,101262.09
2023-06-11T13:51:52.468Z,101258.28
2023-06-11T13:56:55.009Z,101253.41
2023-06-11T14:02:02.350Z,101251.84
2023-06-11T14:07:04.634Z,101245.88
2023-06-11T14:12:07.828Z,101240.06
2023-06-11T14:17:13.319Z,101235.63
2023-06-11T14:22:15.484Z,101230.44
2023-06-11T14:27:16.960Z,101233.13
2023-06-11T14:32:21.685Z,101222.19
2023-06-11T14:37:26.143Z,101218.31
2023-06-11T14:42:27.701Z,101217.31
2023-06-11T14:47:30.315Z,101217.72
2023-06-11T14:52:31.874Z,101208.84
2023-06-11T14:57:33.471Z,101208.19
2023-06-11T15:02:36.994Z,101201.09
2023-06-11T15:07:38.646Z,101208.09
2023-06-11T15:12:40.239Z,101204.06
2023-06-11T15:17:41.779Z,101202.38
2023-06-11T15:22:43.766Z,101186.88
2023-06-11T15:27:45.487Z,101196.34
2023-06-11T15:32:47.185Z,101189.09
2023-06-11T15:37:48.749Z,101183.00
2023-06-11T15:42:50.546Z,101179.56
2023-06-11T15:47:55.358Z,101179.75
2023-06-11T15:52:56.962Z,101178.34
2023-06-11T15:57:58.509Z,101170.84
2023-06-11T16:03:00.402Z,101182.38
2023-06-11T16:08:02.044Z,101172.78
2023-06-11T16:13:04.806Z,101170.97
2023-06-11T16:18:06.443Z,101179.06
2023-06-11T16:23:08.095Z,101172.59
2023-06-11T16:28:09.651Z,101166.69
2023-06-11T16:33:22.928Z,101170.66
2023-06-11T16:38:24.609Z,101173.84
2023-06-11T16:43:27.588Z,101163.13
2023-06-11T16:48:29.260Z,101160.41
2023-06-11T16:53:39.029Z,101171.88
2023-06-11T16:58:40.506Z,101164.03
2023-06-11T17:03:46.445Z,101158.44
2023-06-11T17:08:49.673Z,101164.25
2023-06-11T17:14:10.230Z,101163.94
2023-06-11T17:19:12.125Z,101168.63
2023-06-11T17:24:14.232Z,101169.44
2023-06-11T17:29:16.140Z,101176.88
2023-06-11T17:34:17.761Z,101167.59
2023-06-11T17:39:19.217Z,101176.88
2023-06-11T17:44:28.288Z,101178.72
2023-06-11T17:49:29.766Z,101175.72
2023-06-11T17:54:35.969Z,101177.16
2023-06-11T17:59:37.465Z,101172.78
2023-06-11T18:04:38.945Z,101175.94
2023-06-11T18:09:40.491Z,101178.94
2023-06-11T18:14:41.950Z,101180.81
2023-06-11T18:19:43.642Z,101191.69
2023-06-11T18:24:45.233Z,101193.97
2023-06-11T18:29:47.744Z,101194.69
2023-06-11T18:34:52.239Z,101200.03
2023-06-11T18:39:53.691Z,101196.53
2023-06-11T18:44:55.507Z,101207.47
2023-06-11T18:49:57.422Z,101207.78
2023-06-11T18:55:01.851Z,101215.00
2023-06-11T19:00:06.715Z,101213.63
2023-06-11T19:05:13.975Z,101226.69
2023-06-11T19:10:28.202Z,101232.94
2023-06-11T19:15:38.622Z,101244.84
2023-06-11T19:20:48.297Z,101238.59
2023-06-11T19:25:53.189Z,101245.53
2023-06-11T19:30:58.840Z,101247.88
2023-06-11T19:41:23.363Z,101266.00
2023-06-11T19:46:27.882Z,101263.94
2023-06-11T19:51:31.735Z,101272.28
2023-06-11T19:56:33.768Z,101269.75
2023-06-11T20:01:48.701Z,101265.69
2023-06-11T20:06:50.649Z,101278.00
2023-06-11T20:11:57.524Z,101284.56
2023-06-11T20:17:00.753Z,101287.66
2023-06-11T20:22:06.070Z,101292.53
2023-06-11T20:27:07.886Z,101297.56
2023-06-11T20:32:13.051Z,101306.44
2023-06-11T20:37:18.153Z,101307.03
2023-06-11T20:42:19.902Z,101311.91
2023-06-11T20:47:26.420Z,101309.56
2023-06-11T20:52:37.722Z,101322.25
2023-06-11T20:57:39.524Z,101326.16
2023-06-11T21:02:44.152Z,101325.13
2023-06-11T21:07:47.336Z,101315.75
2023-06-11T21:12:50.648Z,101315.41
2023-06-11T21:17:55.395Z,101316.75
2023-06-11T21:22:59.191Z,101318.75
2023-06-11T21:28:05.513Z,101323.19
2023-06-11T21:33:07.171Z,101318.25
2023-06-11T21:38:10.391Z,101311.25
2023-06-11T21:43:11.968Z,101314.75
2023-06-11T21:48:24.657Z,101319.53
2023-06-11T21:53:28.119Z,101324.38
2023-06-11T21:58:29.759Z,101315.06
2023-06-11T22:03:31.504Z,101324.09
2023-06-11T22:08:33.309Z,101335.75
2023-06-11T22:13:42.153Z,101329.53
2023-06-11T22:18:45.490Z,101330.47
2023-06-11T22:23:51.304Z,101332.50
2023-06-11T22:28:53.294Z,101336.09
2023-06-11T22:33:57.987Z,101336.38
2023-06-11T22:39:12.420Z,101335.06
2023-06-11T22:44:17.767Z,101345.91
2023-06-11T22:49:19.363Z,101349.34
2023-06-11T22:54:21.821Z,101359.41
2023-06-11T22:59:23.327Z,101366.63
2023-06-11T23:04:27.543Z,101364.25
2023-06-11T23:09:29.654Z,101356.63
2023-06-11T23:14:31.187Z,101354.16
2023-06-11T23:19:33.466Z,101363.16
2023-06-11T23:24:35.772Z,101365.91
2023-06-11T23:29:37.361Z,101368.81
2023-06-11T23:34:38.817Z,101350.63
2023-06-11T23:39:40.260Z,101358.59
2023-06-11T23:44:41.806Z,101361.66
2023-06-11T23:49:43.405Z,101359.84
2023-06-11T23:54:45.069Z,101356.44
2023-06-11T23:59:48.808Z,101361.00
